Nissho Maru — JD2955 — position and weather

sailwx.info

Track history (hours):
 
Tides and Currents Weather Stations Pressure Air Temp Water Temp Dewpoint Dewpoint Depression Visibility Wind Speed Wind Dir Waves Ship Positions

Nissho Maru

Last reported at 2017-Oct-19 13:13 UTC. Time now 2017-Oct-19 22:08 UTC.
Position N 35°33' E 139°58'.

Length 99 m; draft 6.4 m.

Type: Tanker. MMSI: 431001006.

Date/timePositionNaut miles runAvg speedWind from/ knotsBaromVisibWave heightAir tempDewpointWater temp
2017-Oct-19 13:13N 35°33' E 139°58'313.8
2017-Oct-19 13:00N 35°31' E 139°55'713.6
2017-Oct-19 12:30N 35°26' E 139°49'612.6
2017-Oct-19 12:00N 35°21' E 139°45'611.5
2017-Oct-19 11:30N 35°15' E 139°47'712.8
2017-Oct-19 11:00N 35°09' E 139°46'713.8
2017-Oct-19 10:30N 35°02' E 139°43'612.0
2017-Oct-19 10:00N 34°56' E 139°44'  
2017-Oct-16 10:39N 34°55' E 140°03'211.2
2017-Oct-16 10:30N 34°55' E 140°02'1111.2
2017-Oct-16 09:31N 34°52' E 139°48'011.1
2017-Oct-16 09:30N 34°52' E 139°48'815.3
2017-Oct-16 09:00N 34°58' E 139°42'714.7
2017-Oct-16 08:30N 35°05' E 139°44'714.9
2017-Oct-16 08:00N 35°13' E 139°46'612.6
2017-Oct-16 07:31N 35°18' E 139°44'713.0
2017-Oct-16 07:00N 35°25' E 139°44'815.2
2017-Oct-16 06:30N 35°29' E 139°51'911.6
2017-Oct-16 05:43N 35°31' E 140°03'0 0.3
2017-Oct-16 05:30N 35°31' E 140°03'0 0.0
2017-Oct-16 02:14N 35°31' E 140°03'0 0.0
2017-Oct-16 00:20N 35°31' E 140°03'0 0.0
2017-Oct-15 23:56N 35°31' E 140°03'0 0.1
2017-Oct-15 23:08N 35°31' E 140°02'3 1.8
2017-Oct-15 21:43N 35°32' E 139°59'0 0.0
2017-Oct-15 17:50N 35°32' E 139°59'0 0.0
2017-Oct-15 17:20N 35°32' E 139°59'0 0.0
2017-Oct-15 16:56N 35°32' E 139°59'0 0.0
2017-Oct-15 16:29N 35°32' E 139°59'0 0.1
2017-Oct-15 15:59N 35°32' E 139°59'0 0.1
2017-Oct-15 15:17N 35°32' E 139°59'0 0.0
2017-Oct-15 14:50N 35°32' E 139°59'0 0.0
2017-Oct-15 13:02N 35°32' E 139°59'0 0.0
2017-Oct-15 12:38N 35°32' E 139°59'0 0.2
2017-Oct-15 12:20N 35°32' E 139°59'0 0.0
2017-Oct-15 11:44N 35°32' E 139°59'0 0.0
2017-Oct-15 10:37N 35°32' E 139°59'0 0.5
2017-Oct-15 10:23N 35°32' E 139°59'2 0.1
2017-Oct-14 20:09N 35°33' E 139°58'1 6.7
2017-Oct-14 19:59N 35°32' E 139°57'613.2
2017-Oct-14 19:30N 35°28' E 139°51'713.3
2017-Oct-14 19:01N 35°23' E 139°46'611.9
2017-Oct-14 18:30N 35°17' E 139°45'612.3
2017-Oct-14 18:01N 35°11' E 139°47'714.0
2017-Oct-14 17:30N 35°04' E 139°44'713.7
2017-Oct-14 17:00N 34°58' E 139°43'612.0
2017-Oct-14 16:30N 34°52' E 139°46'2 0.0
2017-Oct-12 15:23N 34°52' E 139°49'616.3
2017-Oct-12 15:00N 34°57' E 139°44'714.1
2017-Oct-12 14:30N 35°04' E 139°43'714.1
2017-Oct-12 14:00N 35°10' E 139°46'713.1
2017-Oct-12 13:30N 35°17' E 139°45'713.2
2017-Oct-12 13:00N 35°23' E 139°43'714.5
2017-Oct-12 12:30N 35°28' E 139°49'814.9
2017-Oct-12 12:00N 35°32' E 139°57'2 0.2
2017-Oct-12 04:05N 35°34' E 139°56'0 0.0
2017-Oct-12 03:58N 35°34' E 139°56'42 1.0
2017-Oct-10 09:41N 34°52' E 139°49'416.0
2017-Oct-10 09:27N 34°55' E 139°45'614.2
2017-Oct-10 09:00N 35°00' E 139°43'714.9
2017-Oct-10 08:30N 35°08' E 139°45'714.5
2017-Oct-10 08:00N 35°15' E 139°46'613.1
2017-Oct-10 07:30N 35°21' E 139°43'612.8
2017-Oct-10 07:00N 35°26' E 139°46'714.6
2017-Oct-10 06:30N 35°31' E 139°53'  
Track history (hours):
 
Tides and Currents Weather Stations Pressure Air Temp Water Temp Dewpoint Dewpoint Depression Visibility Wind Speed Wind Dir Waves Ship Positions

Nissho Maru

Last reported at 2017-Oct-19 13:13 UTC. Time now 2017-Oct-19 22:08 UTC.
Position N 35°33' E 139°58'.

Length 99 m; draft 6.4 m.

Type: Tanker. MMSI: 431001006.

Date/timePositionNaut miles runAvg speedWind from/ knotsBaromVisibWave heightAir tempDewpointWater temp
2017-Oct-19 13:13N 35°33' E 139°58'313.8
2017-Oct-19 13:00N 35°31' E 139°55'713.6
2017-Oct-19 12:30N 35°26' E 139°49'612.6
2017-Oct-19 12:00N 35°21' E 139°45'611.5
2017-Oct-19 11:30N 35°15' E 139°47'712.8
2017-Oct-19 11:00N 35°09' E 139°46'713.8
2017-Oct-19 10:30N 35°02' E 139°43'612.0
2017-Oct-19 10:00N 34°56' E 139°44'  
2017-Oct-16 10:39N 34°55' E 140°03'211.2
2017-Oct-16 10:30N 34°55' E 140°02'1111.2
2017-Oct-16 09:31N 34°52' E 139°48'011.1
2017-Oct-16 09:30N 34°52' E 139°48'815.3
2017-Oct-16 09:00N 34°58' E 139°42'714.7
2017-Oct-16 08:30N 35°05' E 139°44'714.9
2017-Oct-16 08:00N 35°13' E 139°46'612.6
2017-Oct-16 07:31N 35°18' E 139°44'713.0
2017-Oct-16 07:00N 35°25' E 139°44'815.2
2017-Oct-16 06:30N 35°29' E 139°51'911.6
2017-Oct-16 05:43N 35°31' E 140°03'0 0.3
2017-Oct-16 05:30N 35°31' E 140°03'0 0.0
2017-Oct-16 02:14N 35°31' E 140°03'0 0.0
2017-Oct-16 00:20N 35°31' E 140°03'0 0.0
2017-Oct-15 23:56N 35°31' E 140°03'0 0.1
2017-Oct-15 23:08N 35°31' E 140°02'3 1.8
2017-Oct-15 21:43N 35°32' E 139°59'0 0.0
2017-Oct-15 17:50N 35°32' E 139°59'0 0.0
2017-Oct-15 17:20N 35°32' E 139°59'0 0.0
2017-Oct-15 16:56N 35°32' E 139°59'0 0.0
2017-Oct-15 16:29N 35°32' E 139°59'0 0.1
2017-Oct-15 15:59N 35°32' E 139°59'0 0.1
2017-Oct-15 15:17N 35°32' E 139°59'0 0.0
2017-Oct-15 14:50N 35°32' E 139°59'0 0.0
2017-Oct-15 13:02N 35°32' E 139°59'0 0.0
2017-Oct-15 12:38N 35°32' E 139°59'0 0.2
2017-Oct-15 12:20N 35°32' E 139°59'0 0.0
2017-Oct-15 11:44N 35°32' E 139°59'0 0.0
2017-Oct-15 10:37N 35°32' E 139°59'0 0.5
2017-Oct-15 10:23N 35°32' E 139°59'2 0.1
2017-Oct-14 20:09N 35°33' E 139°58'1 6.7
2017-Oct-14 19:59N 35°32' E 139°57'613.2
2017-Oct-14 19:30N 35°28' E 139°51'713.3
2017-Oct-14 19:01N 35°23' E 139°46'611.9
2017-Oct-14 18:30N 35°17' E 139°45'612.3
2017-Oct-14 18:01N 35°11' E 139°47'714.0
2017-Oct-14 17:30N 35°04' E 139°44'713.7
2017-Oct-14 17:00N 34°58' E 139°43'612.0
2017-Oct-14 16:30N 34°52' E 139°46'2 0.0
2017-Oct-12 15:23N 34°52' E 139°49'616.3
2017-Oct-12 15:00N 34°57' E 139°44'714.1
2017-Oct-12 14:30N 35°04' E 139°43'714.1
2017-Oct-12 14:00N 35°10' E 139°46'713.1
2017-Oct-12 13:30N 35°17' E 139°45'713.2
2017-Oct-12 13:00N 35°23' E 139°43'714.5
2017-Oct-12 12:30N 35°28' E 139°49'814.9
2017-Oct-12 12:00N 35°32' E 139°57'2 0.2
2017-Oct-12 04:05N 35°34' E 139°56'0 0.0
2017-Oct-12 03:58N 35°34' E 139°56'42 1.0
2017-Oct-10 09:41N 34°52' E 139°49'416.0
2017-Oct-10 09:27N 34°55' E 139°45'614.2
2017-Oct-10 09:00N 35°00' E 139°43'714.9
2017-Oct-10 08:30N 35°08' E 139°45'714.5
2017-Oct-10 08:00N 35°15' E 139°46'613.1
2017-Oct-10 07:30N 35°21' E 139°43'612.8
2017-Oct-10 07:00N 35°26' E 139°46'714.6
2017-Oct-10 06:30N 35°31' E 139°53'  

Dump ship's entire track history